createdAt,value
2022-08-10T00:04:02.916Z,1.77
2022-08-10T00:08:07.817Z,1.50
2022-08-10T00:12:11.742Z,1.55
2022-08-10T00:16:15.425Z,1.80
2022-08-10T00:20:19.294Z,1.85
2022-08-10T00:24:24.852Z,2.00
2022-08-10T00:28:28.468Z,2.40
2022-08-10T00:32:31.938Z,2.80
2022-08-10T00:36:34.974Z,1.50
2022-08-10T00:40:39.669Z,3.00
2022-08-10T00:44:45.560Z,2.28
2022-08-10T00:49:00.070Z,1.67
2022-08-10T00:53:04.509Z,1.80
2022-08-10T00:57:17.757Z,2.05
2022-08-10T01:02:08.279Z,1.38
2022-08-10T01:05:53.658Z,1.63
2022-08-10T01:10:10.193Z,1.73
2022-08-10T01:14:23.790Z,1.67
2022-08-10T01:18:39.937Z,1.95
2022-08-10T01:23:05.074Z,1.40
2022-08-10T01:27:34.217Z,1.88
2022-08-10T01:31:43.219Z,1.70
2022-08-10T01:35:53.894Z,1.52
2022-08-10T01:40:00.431Z,1.70
2022-08-10T01:44:10.424Z,1.80
2022-08-10T01:48:32.882Z,1.77
2022-08-10T01:52:43.201Z,1.92
2022-08-10T01:56:52.365Z,1.90
2022-08-10T02:00:58.838Z,1.50
2022-08-10T02:05:05.230Z,2.38
2022-08-10T02:09:09.557Z,1.83
2022-08-10T02:13:14.753Z,2.20
2022-08-10T02:18:00.422Z,2.70
2022-08-10T02:22:36.472Z,2.15
2022-08-10T02:26:19.325Z,2.10
2022-08-10T02:30:23.909Z,1.60
2022-08-10T02:34:28.687Z,1.98
2022-08-10T02:38:59.038Z,2.25
2022-08-10T02:45:23.151Z,2.03
2022-08-10T02:47:51.709Z,1.80
2022-08-10T02:52:08.189Z,2.05
2022-08-10T02:56:22.059Z,2.25
2022-08-10T03:00:26.396Z,2.33
2022-08-10T03:04:55.441Z,2.03
2022-08-10T03:09:01.815Z,1.88
2022-08-10T03:13:10.402Z,2.42
2022-08-10T03:17:16.392Z,2.63
2022-08-10T03:21:22.059Z,1.42
2022-08-10T03:25:27.457Z,2.03
2022-08-10T03:30:23.379Z,1.92
2022-08-10T03:33:59.537Z,2.28
2022-08-10T03:38:03.180Z,2.53
2022-08-10T03:42:09.436Z,2.63
2022-08-10T03:46:16.983Z,2.78
2022-08-10T03:50:46.085Z,3.13
2022-08-10T03:54:46.062Z,2.33
2022-08-10T03:58:49.839Z,2.45
2022-08-10T04:02:55.710Z,2.20
2022-08-10T04:07:00.329Z,1.98
2022-08-10T04:11:03.839Z,1.88
2022-08-10T04:15:08.189Z,2.53
2022-08-10T04:19:15.030Z,3.35
2022-08-10T04:23:23.243Z,2.58
2022-08-10T04:27:27.836Z,2.88
2022-08-10T04:31:33.432Z,2.03
2022-08-10T04:35:40.466Z,2.80
2022-08-10T04:39:43.719Z,2.55
2022-08-10T04:43:48.131Z,2.85
2022-08-10T04:48:00.185Z,2.72
2022-08-10T04:52:08.042Z,2.65
2022-08-10T04:56:13.469Z,3.15
2022-08-10T05:00:18.900Z,4.55
2022-08-10T05:04:34.870Z,4.75
2022-08-10T05:08:43.150Z,4.07
2022-08-10T05:12:47.629Z,5.28
2022-08-10T05:16:51.497Z,3.83
2022-08-10T05:20:54.579Z,3.33
2022-08-10T05:24:59.662Z,3.05
2022-08-10T05:29:03.228Z,3.03
2022-08-10T05:33:08.997Z,3.05
2022-08-10T05:38:10.520Z,2.88
2022-08-10T05:41:44.771Z,2.40
2022-08-10T05:46:19.635Z,2.13
2022-08-10T05:50:14.446Z,1.83
2022-08-10T05:54:17.601Z,2.20
2022-08-10T05:58:22.562Z,2.08
2022-08-10T06:02:35.538Z,1.92
2022-08-10T06:06:40.486Z,2.22
2022-08-10T06:12:24.361Z,1.70
2022-08-10T06:15:21.711Z,2.28
2022-08-10T06:19:37.786Z,2.00
2022-08-10T06:23:42.535Z,3.10
2022-08-10T06:27:48.884Z,2.63
2022-08-10T06:31:55.894Z,2.55
2022-08-10T06:36:00.708Z,1.67
2022-08-10T06:40:04.390Z,2.35
2022-08-10T06:44:17.309Z,2.22
2022-08-10T06:48:28.006Z,1.90
2022-08-10T06:52:34.902Z,1.77
2022-08-10T06:56:55.828Z,1.50
2022-08-10T07:01:10.518Z,1.83
2022-08-10T07:05:20.973Z,1.60
2022-08-10T07:09:25.837Z,1.58
2022-08-10T07:14:16.732Z,1.80
2022-08-10T07:17:56.269Z,1.33
2022-08-10T07:22:02.373Z,1.23
2022-08-10T07:26:10.064Z,1.50
2022-08-10T07:30:13.997Z,1.52
2022-08-10T07:34:28.564Z,1.75
2022-08-10T07:38:35.458Z,1.10
2022-08-10T07:42:45.701Z,1.65
2022-08-10T07:46:54.123Z,0.93
2022-08-10T07:51:00.370Z,1.08
2022-08-10T07:55:07.877Z,1.25
2022-08-10T07:59:14.087Z,1.45
2022-08-10T08:03:18.485Z,1.30
2022-08-10T08:07:23.050Z,1.08
2022-08-10T08:11:29.624Z,1.30
2022-08-10T08:16:20.403Z,1.02
2022-08-10T08:20:01.549Z,0.93
2022-08-10T08:24:33.054Z,1.13
2022-08-10T08:28:37.157Z,0.90
2022-08-10T08:32:44.509Z,1.00
2022-08-10T08:36:50.600Z,0.90
2022-08-10T08:41:01.211Z,1.10
2022-08-10T08:45:16.060Z,0.80
2022-08-10T08:50:04.468Z,0.77
2022-08-10T08:54:14.660Z,1.45
2022-08-10T08:58:31.884Z,0.90
2022-08-10T09:02:56.647Z,0.90
2022-08-10T09:07:59.426Z,0.95
2022-08-10T09:12:07.587Z,0.88
2022-08-10T09:16:24.834Z,0.85
2022-08-10T09:20:36.069Z,1.15
2022-08-10T09:24:46.840Z,1.08
2022-08-10T09:28:57.738Z,1.08
2022-08-10T09:36:25.388Z,1.33
2022-08-10T09:38:02.170Z,0.70
2022-08-10T09:42:15.162Z,0.82
2022-08-10T09:51:16.284Z,0.75
2022-08-10T09:55:16.369Z,0.77
2022-08-10T10:00:00.276Z,0.95
2022-08-10T10:03:56.675Z,0.80
2022-08-10T10:08:11.104Z,0.65
2022-08-10T10:12:25.983Z,0.75
2022-08-10T10:16:44.947Z,0.52
2022-08-10T10:20:57.484Z,0.90
2022-08-10T10:25:20.991Z,0.80
2022-08-10T10:29:58.267Z,0.60
2022-08-10T10:34:12.693Z,1.00
2022-08-10T10:38:18.551Z,1.00
2022-08-10T10:42:47.904Z,0.77
2022-08-10T10:51:09.897Z,0.63
2022-08-10T10:55:27.336Z,0.90
2022-08-10T10:59:54.959Z,0.70
2022-08-10T11:04:16.438Z,0.52
2022-08-10T11:08:29.185Z,0.88
2022-08-10T11:12:40.677Z,1.02
2022-08-10T11:16:57.181Z,0.77
2022-08-10T11:21:11.980Z,0.93
2022-08-10T11:25:31.836Z,0.80
2022-08-10T11:29:43.903Z,0.95
2022-08-10T11:34:47.399Z,0.80
2022-08-10T11:38:42.793Z,0.63
2022-08-10T11:43:07.304Z,0.73
2022-08-10T11:47:13.839Z,0.80
2022-08-10T11:51:23.039Z,0.80
2022-08-10T11:55:29.824Z,1.08
2022-08-10T11:59:58.632Z,0.75
2022-08-10T12:04:12.054Z,1.08
2022-08-10T12:10:04.170Z,0.50
2022-08-10T12:12:48.936Z,0.75
2022-08-10T12:17:02.440Z,0.88
2022-08-10T12:21:16.332Z,1.02
2022-08-10T12:25:57.183Z,0.60
2022-08-10T12:30:03.764Z,0.77
2022-08-10T12:34:22.417Z,0.50
2022-08-10T12:38:36.734Z,0.88
2022-08-10T12:43:02.461Z,0.82
2022-08-10T12:47:20.719Z,0.80
2022-08-10T12:51:30.402Z,0.93
2022-08-10T12:55:35.732Z,0.70
2022-08-10T12:59:43.796Z,0.85
2022-08-10T13:04:23.699Z,0.80
2022-08-10T13:08:33.712Z,0.70
2022-08-10T13:12:44.830Z,1.13
2022-08-10T13:16:51.016Z,0.67
2022-08-10T13:20:56.021Z,1.02
2022-08-10T13:25:04.808Z,0.70
2022-08-10T13:29:15.437Z,0.55
2022-08-10T13:34:40.599Z,0.90
2022-08-10T13:37:46.188Z,0.95
2022-08-10T13:41:54.943Z,0.60
2022-08-10T13:45:59.359Z,0.73
2022-08-10T13:50:06.663Z,1.10
2022-08-10T13:54:13.132Z,0.70
2022-08-10T13:58:23.595Z,0.90
2022-08-10T14:02:33.253Z,1.10
2022-08-10T14:06:37.126Z,1.02
2022-08-10T14:11:09.818Z,0.70
2022-08-10T14:15:11.757Z,0.80
2022-08-10T14:19:18.629Z,0.75
2022-08-10T14:23:23.851Z,0.60
2022-08-10T14:27:27.412Z,0.40
2022-08-10T14:32:00.716Z,0.70
2022-08-10T14:36:20.246Z,0.65
2022-08-10T14:40:36.483Z,1.17
2022-08-10T14:44:46.753Z,0.98
2022-08-10T14:48:52.922Z,0.70
2022-08-10T14:52:57.860Z,0.50
2022-08-10T14:57:10.856Z,0.70
2022-08-10T15:01:20.743Z,1.08
2022-08-10T15:05:39.322Z,0.77
2022-08-10T15:10:01.394Z,0.70
2022-08-10T15:14:41.933Z,0.80
2022-08-10T15:18:33.928Z,0.85
2022-08-10T15:22:40.582Z,0.98
2022-08-10T15:26:51.364Z,0.80
2022-08-10T15:31:02.073Z,0.90
2022-08-10T15:35:25.643Z,0.90
2022-08-10T15:40:22.019Z,0.70
2022-08-10T15:43:57.497Z,0.57
2022-08-10T15:48:04.031Z,0.82
2022-08-10T15:52:14.615Z,0.77
2022-08-10T15:56:46.111Z,0.90
2022-08-10T16:00:57.393Z,0.70
2022-08-10T16:05:08.133Z,0.65
2022-08-10T16:10:24.092Z,0.63
2022-08-10T16:13:50.663Z,0.88
2022-08-10T16:18:08.894Z,0.60
2022-08-10T16:22:36.651Z,0.50
2022-08-10T16:26:40.641Z,0.77
2022-08-10T16:30:48.577Z,0.82
2022-08-10T16:34:53.352Z,0.47
2022-08-10T16:38:57.874Z,0.73
2022-08-10T16:43:03.971Z,0.40
2022-08-10T16:51:21.714Z,0.70
2022-08-10T16:55:49.930Z,0.60
2022-08-10T16:59:51.689Z,0.60
2022-08-10T17:04:06.624Z,0.60
2022-08-10T17:08:17.952Z,0.60
2022-08-10T17:12:27.150Z,0.60
2022-08-10T17:16:35.923Z,0.95
2022-08-10T17:20:43.679Z,0.75
2022-08-10T17:24:54.768Z,0.65
2022-08-10T17:29:02.334Z,0.90
2022-08-10T17:33:14.055Z,1.02
2022-08-10T17:37:20.645Z,0.68
2022-08-10T17:41:30.483Z,0.80
2022-08-10T17:45:46.267Z,1.15
2022-08-10T17:49:57.494Z,0.98
2022-08-10T17:54:03.425Z,1.00
2022-08-10T17:58:13.717Z,0.70
2022-08-10T18:02:21.380Z,1.08
2022-08-10T18:06:25.417Z,0.50
2022-08-10T18:10:29.201Z,1.20
2022-08-10T18:14:35.100Z,1.05
2022-08-10T18:18:40.027Z,0.85
2022-08-10T18:22:46.625Z,0.93
2022-08-10T18:26:52.790Z,0.95
2022-08-10T18:30:58.520Z,0.68
2022-08-10T18:35:04.655Z,1.00
2022-08-10T18:39:09.715Z,0.45
2022-08-10T18:44:07.591Z,0.90
2022-08-10T18:47:59.684Z,0.75
2022-08-10T18:52:05.843Z,0.77
2022-08-10T18:56:21.962Z,0.60
2022-08-10T19:00:33.086Z,0.82
2022-08-10T19:04:57.066Z,0.90
2022-08-10T19:09:46.202Z,0.60
2022-08-10T19:13:55.233Z,0.80
2022-08-10T19:18:12.320Z,0.90
2022-08-10T19:22:22.667Z,0.82
2022-08-10T19:26:44.584Z,0.82
2022-08-10T19:30:53.251Z,0.82
2022-08-10T19:35:05.023Z,0.90
2022-08-10T19:39:18.026Z,0.80
2022-08-10T19:43:59.539Z,1.00
2022-08-10T19:47:57.213Z,0.90
2022-08-10T19:52:10.131Z,1.48
2022-08-10T19:56:34.162Z,0.90
2022-08-10T20:00:42.437Z,1.15
2022-08-10T20:04:58.404Z,1.50
2022-08-10T20:09:07.101Z,0.90
2022-08-10T20:13:16.535Z,1.17
2022-08-10T20:17:28.544Z,1.33
2022-08-10T20:21:40.710Z,1.10
2022-08-10T20:25:48.984Z,0.97
2022-08-10T20:29:59.489Z,1.10
2022-08-10T20:34:08.629Z,0.90
2022-08-10T20:38:20.926Z,0.73
2022-08-10T20:42:34.182Z,1.00
2022-08-10T20:46:49.120Z,1.00
2022-08-10T20:50:58.639Z,0.90
2022-08-10T20:55:08.716Z,0.98
2022-08-10T20:59:33.476Z,1.00
2022-08-10T21:03:54.136Z,1.17
2022-08-10T21:08:15.010Z,1.05
2022-08-10T21:12:45.517Z,1.60
2022-08-10T21:17:10.206Z,1.00
2022-08-10T21:21:41.673Z,1.58
2022-08-10T21:25:58.959Z,1.15
2022-08-10T21:30:09.218Z,0.75
2022-08-10T21:34:32.360Z,1.40
2022-08-10T21:38:48.138Z,1.02
2022-08-10T21:43:16.226Z,1.17
2022-08-10T21:48:16.486Z,1.10
2022-08-10T21:52:42.663Z,0.95
2022-08-10T21:57:43.733Z,0.93
2022-08-10T22:02:10.307Z,0.93
2022-08-10T22:06:33.387Z,1.00
2022-08-10T22:11:01.448Z,1.42
2022-08-10T22:15:31.181Z,1.20
2022-08-10T22:20:24.840Z,1.23
2022-08-10T22:24:58.501Z,1.30
2022-08-10T22:29:42.649Z,1.17
2022-08-10T22:34:16.469Z,1.38
2022-08-10T22:38:51.281Z,1.00
2022-08-10T22:43:15.273Z,1.30
2022-08-10T22:47:56.455Z,1.00
2022-08-10T22:52:07.726Z,1.30
2022-08-10T22:56:28.360Z,1.92
2022-08-10T23:00:32.451Z,1.15
2022-08-10T23:04:44.931Z,1.35
2022-08-10T23:08:54.636Z,1.45
2022-08-10T23:13:03.515Z,1.20
2022-08-10T23:18:02.087Z,1.13
2022-08-10T23:22:04.674Z,1.40
2022-08-10T23:26:12.806Z,1.40
2022-08-10T23:30:19.026Z,1.88
2022-08-10T23:34:27.071Z,1.70
2022-08-10T23:38:33.959Z,1.30
2022-08-10T23:42:42.217Z,1.52
2022-08-10T23:46:46.516Z,1.83
2022-08-10T23:50:59.253Z,1.27
2022-08-10T23:55:07.445Z,1.60
2022-08-10T23:59:16.883Z,1.83
